Time;durP1;ratioP1;P1;durP2;ratioP2;P2;SDS_P1;SDS_P2;PMS_P1;PMS_P2;Temp;Humidity;BMP_temperature;BMP_pressure;BME280_temperature;BME280_humidity;BME280_pressure;Samples;Min_cycle;Max_cycle;Signal;HPM_P1;HPM_P2
2022/05/01 00:01:33;;;;;;;4.63;3.90;;;11.10;64.60;;;;;;5089267;28;20031;-72
2022/05/01 00:03:59;;;;;;;5.78;4.32;;;11.00;64.60;;;;;;5090707;28;20016;-71
2022/05/01 00:06:24;;;;;;;6.55;5.00;;;11.00;64.70;;;;;;5090392;28;20096;-71
2022/05/01 00:08:50;;;;;;;5.43;4.30;;;11.00;64.80;;;;;;5092272;28;20466;-71
2022/05/01 00:11:16;;;;;;;5.13;3.88;;;11.00;64.80;;;;;;5088950;28;20035;-72
2022/05/01 00:13:43;;;;;;;6.07;4.40;;;11.10;64.90;;;;;;5092639;28;20028;-72
2022/05/01 00:16:09;;;;;;;7.03;4.60;;;11.00;64.80;;;;;;5089795;28;20023;-72
2022/05/01 00:18:35;;;;;;;6.55;4.68;;;11.10;65.00;;;;;;5084262;28;20074;-72
2022/05/01 00:21:00;;;;;;;6.03;4.72;;;11.10;65.00;;;;;;5092334;28;20035;-72
2022/05/01 00:23:26;;;;;;;6.05;4.22;;;11.00;65.00;;;;;;5092258;28;20032;-71
2022/05/01 00:25:51;;;;;;;5.45;4.80;;;11.00;65.00;;;;;;5083721;28;20089;-71
2022/05/01 00:28:18;;;;;;;6.25;4.47;;;11.00;65.10;;;;;;5091866;28;20028;-71
2022/05/01 00:30:43;;;;;;;4.70;4.20;;;11.00;65.20;;;;;;5090594;28;20051;-72
2022/05/01 00:38:37;;;;;;;6.57;4.85;;;11.00;65.30;;;;;;5083730;28;20086;-72
2022/05/01 00:41:05;;;;;;;5.75;4.85;;;11.00;65.40;;;;;;5086129;28;20016;-73
2022/05/01 00:43:31;;;;;;;5.70;4.75;;;11.00;65.40;;;;;;5086726;28;20081;-73
2022/05/01 00:45:57;;;;;;;4.90;3.90;;;11.00;65.50;;;;;;5083851;28;20039;-72
2022/05/01 00:48:23;;;;;;;6.30;4.30;;;11.00;65.60;;;;;;5085343;28;20028;-74
2022/05/01 00:50:49;;;;;;;5.50;4.30;;;11.00;65.50;;;;;;5088332;28;20024;-73
2022/05/01 00:53:14;;;;;;;5.95;4.50;;;11.00;65.60;;;;;;5074869;28;20024;-73
2022/05/01 00:55:40;;;;;;;4.88;3.90;;;11.00;65.60;;;;;;5078276;28;20114;-72
2022/05/01 00:58:07;;;;;;;6.07;4.63;;;10.90;65.60;;;;;;5091412;28;20070;-72
2022/05/01 01:00:34;;;;;;;5.70;4.47;;;11.00;65.70;;;;;;5089761;28;20032;-71
2022/05/01 01:03:00;;;;;;;5.90;4.32;;;11.00;65.70;;;;;;5085358;28;20020;-71
2022/05/01 01:05:25;;;;;;;6.05;4.50;;;11.00;65.70;;;;;;5089445;28;20031;-71
2022/05/01 01:07:51;;;;;;;6.55;4.35;;;11.00;65.70;;;;;;5086660;28;20031;-72
2022/05/01 01:10:17;;;;;;;5.60;4.13;;;10.90;65.70;;;;;;5090826;28;20025;-72
2022/05/01 01:12:54;;;;;;;5.05;4.40;;;10.90;65.70;;;;;;5076470;28;20042;-72
2022/05/01 01:15:24;;;;;;;5.28;4.10;;;10.90;65.80;;;;;;5084058;28;20032;-72
2022/05/01 01:17:54;;;;;;;6.43;4.40;;;10.90;65.80;;;;;;5090591;28;20020;-72
2022/05/01 01:20:29;;;;;;;5.88;4.25;;;10.90;65.80;;;;;;5086982;28;20024;-72
2022/05/01 01:22:59;;;;;;;5.55;4.55;;;10.90;65.80;;;;;;5089341;28;20111;-72
2022/05/01 01:25:27;;;;;;;5.75;4.55;;;11.00;65.90;;;;;;5085728;28;20025;-71
2022/05/01 01:27:56;;;;;;;6.57;4.60;;;11.00;65.90;;;;;;5081069;28;20051;-71
2022/05/01 01:33:07;;;;;;;5.90;4.28;;;10.90;66.10;;;;;;5085347;28;20027;-73
2022/05/01 01:35:35;;;;;;;5.38;4.57;;;10.90;66.00;;;;;;5078286;28;20052;-72
2022/05/01 01:38:01;;;;;;;6.63;4.78;;;10.90;66.10;;;;;;5078726;28;20055;-73
2022/05/01 01:40:45;;;;;;;6.70;5.13;;;10.90;66.10;;;;;;5084504;28;20052;-73
2022/05/01 01:43:12;;;;;;;6.30;5.05;;;10.90;66.20;;;;;;5085788;28;20020;-73
2022/05/01 01:45:37;;;;;;;6.80;4.72;;;10.80;66.30;;;;;;5074139;28;20024;-73
2022/05/01 01:48:14;;;;;;;5.68;5.05;;;10.80;66.30;;;;;;5090906;28;20497;-73
2022/05/01 01:50:41;;;;;;;6.60;5.25;;;10.90;66.40;;;;;;5089331;28;20072;-73
2022/05/01 01:53:07;;;;;;;7.10;5.60;;;10.80;66.30;;;;;;5089203;28;20069;-72
2022/05/01 01:55:33;;;;;;;7.25;5.30;;;10.90;66.50;;;;;;5090603;28;20028;-73
2022/05/01 01:57:59;;;;;;;7.22;5.35;;;10.80;66.50;;;;;;5083600;28;20049;-69
2022/05/01 02:00:24;;;;;;;7.00;5.15;;;10.80;66.60;;;;;;5070923;28;20020;-71
2022/05/01 02:03:00;;;;;;;8.50;6.05;;;10.80;66.70;;;;;;5087155;28;20566;-71
2022/05/01 02:05:26;;;;;;;6.30;4.85;;;10.80;66.80;;;;;;5089761;28;20028;-72
2022/05/01 02:07:53;;;;;;;7.53;5.50;;;10.80;66.80;;;;;;5081726;28;20017;-71
2022/05/01 02:10:20;;;;;;;8.45;5.72;;;10.80;66.80;;;;;;5090047;28;20020;-72
2022/05/01 02:12:45;;;;;;;7.32;5.63;;;10.80;66.80;;;;;;5087238;28;20020;-73
2022/05/01 02:15:11;;;;;;;7.18;5.68;;;10.80;66.80;;;;;;5089180;28;20039;-72
2022/05/01 02:17:39;;;;;;;7.28;5.60;;;10.70;66.90;;;;;;5087282;28;20020;-73
2022/05/01 02:20:05;;;;;;;6.32;5.25;;;10.70;67.00;;;;;;5089090;28;20504;-72
2022/05/01 02:22:31;;;;;;;7.07;5.47;;;10.70;67.00;;;;;;5087120;28;20639;-72
2022/05/01 02:24:57;;;;;;;6.50;4.97;;;10.70;67.00;;;;;;5080203;28;20016;-73
2022/05/01 02:27:22;;;;;;;7.00;5.80;;;10.70;67.00;;;;;;5085895;28;20086;-73
2022/05/01 02:29:48;;;;;;;7.13;5.28;;;10.70;67.00;;;;;;5083928;28;20028;-71
2022/05/01 02:32:14;;;;;;;7.15;4.82;;;10.60;67.10;;;;;;5087288;28;20046;-73
2022/05/01 02:34:40;;;;;;;5.75;4.68;;;10.60;67.10;;;;;;5084415;28;20092;-73
2022/05/01 02:37:06;;;;;;;6.45;5.10;;;10.70;67.10;;;;;;5087282;28;20028;-73
2022/05/01 02:39:32;;;;;;;8.25;5.50;;;10.60;67.20;;;;;;5083441;28;20029;-73
2022/05/01 02:41:58;;;;;;;6.72;5.30;;;10.60;67.30;;;;;;5083429;28;20031;-73
2022/05/01 02:44:24;;;;;;;7.93;5.68;;;10.60;67.30;;;;;;5082316;28;20013;-73
2022/05/01 02:46:50;;;;;;;7.00;5.45;;;10.50;67.40;;;;;;5088078;28;20036;-73
2022/05/01 02:49:15;;;;;;;7.82;5.90;;;10.50;67.60;;;;;;5086035;28;20027;-74
2022/05/01 02:51:41;;;;;;;7.20;5.38;;;10.50;67.70;;;;;;5088270;28;20039;-74
2022/05/01 02:54:06;;;;;;;7.82;5.72;;;10.40;67.70;;;;;;5077063;28;20119;-74
2022/05/01 02:56:33;;;;;;;7.88;6.10;;;10.40;67.80;;;;;;5083303;28;20067;-73
2022/05/01 02:59:00;;;;;;;9.10;5.90;;;10.40;67.90;;;;;;5088076;28;20020;-74
2022/05/01 03:01:26;;;;;;;6.80;5.85;;;10.40;67.90;;;;;;5085837;28;20632;-74
2022/05/01 03:03:51;;;;;;;5.93;5.18;;;10.50;67.90;;;;;;5085294;28;20031;-73
2022/05/01 03:06:17;;;;;;;6.40;5.35;;;10.50;67.90;;;;;;5087808;28;20027;-74
2022/05/01 03:08:42;;;;;;;5.60;4.70;;;10.50;67.80;;;;;;5087340;28;20043;-73
2022/05/01 03:11:08;;;;;;;6.13;5.40;;;10.40;67.80;;;;;;5079961;28;20028;-74
2022/05/01 03:13:34;;;;;;;7.00;5.30;;;10.40;67.90;;;;;;5086747;28;20118;-73
2022/05/01 03:16:00;;;;;;;8.35;5.47;;;10.40;67.90;;;;;;5087925;28;20145;-73
2022/05/01 03:23:54;;;;;;;7.10;5.43;;;10.40;67.90;;;;;;5084831;28;20129;-73
2022/05/01 03:26:19;;;;;;;5.90;4.95;;;10.40;68.10;;;;;;5087575;28;21017;-73
2022/05/01 03:28:46;;;;;;;7.32;4.63;;;10.30;68.20;;;;;;5087694;28;20035;-72
2022/05/01 03:31:13;;;;;;;7.07;4.88;;;10.30;68.40;;;;;;5083806;28;20990;-72
2022/05/01 03:33:39;;;;;;;6.40;5.20;;;10.30;68.50;;;;;;5081958;28;20115;-72
2022/05/01 03:36:06;;;;;;;7.82;5.70;;;10.30;68.60;;;;;;5087247;28;20024;-72
2022/05/01 03:38:33;;;;;;;6.85;5.63;;;10.30;68.70;;;;;;5078669;28;20065;-72
2022/05/01 03:40:59;;;;;;;5.93;4.82;;;10.30;68.70;;;;;;5081409;28;20016;-74
2022/05/01 03:43:25;;;;;;;7.40;5.63;;;10.30;68.60;;;;;;5085939;28;20024;-74
2022/05/01 03:45:50;;;;;;;8.35;6.20;;;10.30;68.60;;;;;;5088185;28;20199;-74
2022/05/01 03:48:16;;;;;;;7.53;6.18;;;10.30;68.50;;;;;;5078781;28;20032;-75
2022/05/01 03:50:41;;;;;;;8.40;6.05;;;10.30;68.60;;;;;;5084849;28;20125;-75
2022/05/01 03:53:07;;;;;;;8.05;5.68;;;10.30;68.70;;;;;;5076854;28;20024;-74
2022/05/01 03:55:33;;;;;;;7.47;5.32;;;10.30;68.70;;;;;;5075552;28;20032;-73
2022/05/01 03:58:00;;;;;;;8.00;5.60;;;10.30;69.30;;;;;;5085212;28;20359;-73
2022/05/01 04:00:27;;;;;;;7.85;5.57;;;10.30;68.60;;;;;;5087687;28;20505;-72
2022/05/01 04:02:53;;;;;;;7.22;5.15;;;10.30;68.60;;;;;;5088369;28;20119;-74
2022/05/01 04:05:19;;;;;;;8.38;5.75;;;10.30;68.60;;;;;;5086960;28;20107;-73
2022/05/01 04:07:44;;;;;;;6.00;4.97;;;10.30;68.60;;;;;;5085388;28;20498;-74
2022/05/01 04:10:11;;;;;;;6.68;5.57;;;10.20;68.60;;;;;;5089211;28;20020;-74
2022/05/01 04:12:38;;;;;;;6.35;5.05;;;10.20;68.80;;;;;;5077950;28;20111;-74
2022/05/01 04:15:07;;;;;;;5.93;5.25;;;10.20;69.00;;;;;;5083773;28;20024;-74
2022/05/01 04:17:38;;;;;;;6.90;5.32;;;10.20;69.00;;;;;;5084821;28;20036;-74
2022/05/01 04:20:06;;;;;;;6.45;5.25;;;10.20;69.00;;;;;;5086714;28;20044;-73
2022/05/01 04:22:56;;;;;;;7.40;5.43;;;10.20;69.00;;;;;;5087332;28;20032;-73
2022/05/01 04:25:24;;;;;;;5.95;5.32;;;10.20;69.00;;;;;;5087090;28;20044;-71
2022/05/01 04:27:52;;;;;;;6.50;4.82;;;10.20;69.00;;;;;;5088650;28;20505;-70
2022/05/01 04:30:19;;;;;;;8.43;5.65;;;10.20;69.00;;;;;;5088387;28;20058;-73
2022/05/01 04:32:53;;;;;;;7.15;5.25;;;10.20;69.10;;;;;;5088478;28;20031;-72
2022/05/01 04:35:26;;;;;;;7.00;5.50;;;10.10;69.10;;;;;;5089830;28;20024;-72
2022/05/01 04:37:52;;;;;;;7.53;5.63;;;10.20;69.20;;;;;;5092417;28;20643;-72
2022/05/01 04:40:19;;;;;;;6.60;5.20;;;10.20;69.10;;;;;;5087131;28;20024;-72
2022/05/01 04:42:45;;;;;;;7.47;5.80;;;10.20;69.10;;;;;;5079312;28;20044;-70
2022/05/01 04:45:11;;;;;;;7.10;5.97;;;10.20;69.10;;;;;;5090864;28;20016;-72
2022/05/01 04:47:38;;;;;;;7.78;5.57;;;10.10;69.10;;;;;;5092713;28;20059;-73
2022/05/01 04:50:04;;;;;;;7.43;5.68;;;10.10;69.30;;;;;;5092007;28;20063;-71
2022/05/01 04:52:30;;;;;;;8.20;5.18;;;10.10;69.40;;;;;;5092831;28;20506;-72
2022/05/01 04:54:56;;;;;;;6.97;5.40;;;10.10;69.50;;;;;;5090800;28;20075;-72
2022/05/01 04:57:21;;;;;;;8.07;5.85;;;10.00;69.40;;;;;;5091127;28;20131;-72
2022/05/01 04:59:48;;;;;;;6.68;5.65;;;10.10;69.50;;;;;;5091366;28;20028;-71
2022/05/01 05:02:14;;;;;;;6.78;5.32;;;10.10;69.50;;;;;;5092059;28;20157;-72
2022/05/01 05:04:40;;;;;;;6.50;5.80;;;10.10;69.60;;;;;;5090008;28;20103;-73
2022/05/01 05:07:06;;;;;;;8.05;6.47;;;10.10;69.70;;;;;;5089180;28;20158;-72
2022/05/01 05:12:15;;;;;;;6.43;5.53;;;10.10;69.70;;;;;;5091654;28;20085;-71
2022/05/01 05:14:41;;;;;;;7.57;6.20;;;10.10;69.70;;;;;;5090413;28;20036;-71
2022/05/01 05:17:07;;;;;;;7.97;6.10;;;10.10;69.70;;;;;;5091979;28;20028;-70
2022/05/01 05:19:36;;;;;;;8.93;6.70;;;10.20;69.70;;;;;;5091397;28;20024;-71
2022/05/01 05:22:02;;;;;;;7.03;5.85;;;10.20;69.60;;;;;;5091589;28;20386;-72
2022/05/01 05:24:28;;;;;;;8.40;6.57;;;10.20;69.60;;;;;;5088923;28;20031;-72
2022/05/01 05:26:54;;;;;;;6.78;5.70;;;10.20;69.50;;;;;;5090954;28;20105;-72
2022/05/01 05:29:19;;;;;;;6.85;5.55;;;10.30;69.50;;;;;;5091043;28;20063;-72
2022/05/01 05:31:45;;;;;;;7.18;5.32;;;10.40;69.20;;;;;;5091026;28;20059;-71
2022/05/01 05:34:10;;;;;;;7.30;6.07;;;10.40;69.10;;;;;;5091506;28;20024;-71
2022/05/01 05:36:36;;;;;;;8.32;6.07;;;10.50;69.10;;;;;;5090487;28;20047;-71
2022/05/01 05:39:01;;;;;;;8.50;6.80;;;10.50;69.00;;;;;;5090823;28;20432;-70
2022/05/01 05:41:27;;;;;;;8.13;6.70;;;10.50;69.10;;;;;;5085113;28;20044;-70
2022/05/01 05:43:52;;;;;;;8.05;6.32;;;10.60;69.20;;;;;;5088321;28;20032;-71
2022/05/01 05:46:18;;;;;;;8.20;6.45;;;10.50;69.10;;;;;;5089280;28;20043;-71
2022/05/01 05:48:43;;;;;;;9.88;6.35;;;10.60;69.20;;;;;;5090206;28;20028;-71
2022/05/01 05:51:09;;;;;;;8.30;5.80;;;10.60;69.20;;;;;;5090094;28;20074;-71
2022/05/01 05:53:34;;;;;;;6.97;5.40;;;10.70;68.90;;;;;;5089686;28;20039;-71
2022/05/01 05:56:00;;;;;;;8.00;5.72;;;11.00;68.80;;;;;;5088592;28;20097;-71
2022/05/01 05:58:25;;;;;;;8.35;6.70;;;11.40;67.80;;;;;;5091175;28;20068;-72
2022/05/01 06:00:51;;;;;;;8.73;6.25;;;11.60;67.00;;;;;;5088960;28;20021;-71
2022/05/01 06:03:19;;;;;;;6.95;5.88;;;12.20;66.20;;;;;;5090134;28;20553;-72
2022/05/01 06:05:47;;;;;;;7.22;5.55;;;12.90;64.60;;;;;;5088286;28;20024;-72
2022/05/01 06:08:13;;;;;;;10.63;8.25;;;13.20;63.20;;;;;;5089453;28;20032;-73
2022/05/01 06:10:39;;;;;;;10.57;8.98;;;13.20;62.70;;;;;;5089517;28;20032;-71
2022/05/01 06:13:05;;;;;;;7.97;6.28;;;13.30;62.80;;;;;;5089512;28;20053;-70
2022/05/01 06:15:31;;;;;;;8.77;6.80;;;14.20;61.70;;;;;;5089891;28;20036;-71
2022/05/01 06:17:56;;;;;;;7.50;5.90;;;14.20;60.30;;;;;;5091085;28;20106;-72
2022/05/01 06:20:22;;;;;;;7.32;6.22;;;14.10;60.20;;;;;;5090489;28;20080;-71
2022/05/01 06:22:50;;;;;;;8.07;6.10;;;14.10;60.60;;;;;;5089308;28;20032;-70
2022/05/01 06:25:16;;;;;;;8.00;6.60;;;13.80;61.00;;;;;;5088932;28;20028;-70
2022/05/01 06:27:42;;;;;;;6.88;5.72;;;13.50;61.70;;;;;;5089968;28;20031;-71
2022/05/01 06:30:11;;;;;;;8.57;6.45;;;13.30;62.30;;;;;;5083086;28;20020;-72
2022/05/01 06:32:38;;;;;;;7.72;5.78;;;13.20;62.80;;;;;;5086524;28;20074;-72
2022/05/01 06:35:05;;;;;;;7.57;6.32;;;13.00;63.10;;;;;;5088855;28;20029;-72
2022/05/01 06:37:31;;;;;;;7.78;6.80;;;12.80;63.30;;;;;;5089011;28;20378;-72
2022/05/01 06:39:57;;;;;;;8.93;6.32;;;12.70;63.70;;;;;;5087430;28;20024;-72
2022/05/01 06:42:22;;;;;;;6.57;5.47;;;12.60;64.90;;;;;;5086376;28;20070;-72
2022/05/01 06:44:48;;;;;;;8.70;6.75;;;12.60;64.30;;;;;;5085543;28;20028;-72
2022/05/01 06:47:14;;;;;;;8.82;6.65;;;12.50;64.50;;;;;;5087634;28;20024;-71
2022/05/01 06:49:39;;;;;;;7.38;6.13;;;12.50;64.60;;;;;;5087110;28;20039;-70
2022/05/01 06:52:05;;;;;;;7.43;6.10;;;12.50;64.60;;;;;;5084362;28;20149;-71
2022/05/01 06:54:31;;;;;;;7.65;6.40;;;12.60;64.60;;;;;;5085022;28;20534;-71
2022/05/01 06:56:56;;;;;;;9.88;8.13;;;12.60;64.50;;;;;;5085091;28;20078;-72
2022/05/01 06:59:22;;;;;;;9.70;7.22;;;12.50;64.30;;;;;;5085693;28;20382;-70
2022/05/01 07:01:47;;;;;;;7.97;6.50;;;12.40;64.70;;;;;;5088165;28;20024;-74
2022/05/01 07:04:13;;;;;;;9.02;6.90;;;12.50;64.80;;;;;;5088171;28;20028;-73
2022/05/01 07:06:40;;;;;;;7.45;5.95;;;12.60;64.60;;;;;;5083786;28;20035;-74
2022/05/01 07:09:06;;;;;;;7.75;6.32;;;12.70;64.20;;;;;;5088170;28;20504;-72
2022/05/01 07:11:32;;;;;;;7.72;5.88;;;12.80;63.90;;;;;;5088483;28;20028;-72
2022/05/01 07:13:57;;;;;;;9.27;6.90;;;12.80;63.70;;;;;;5089244;28;20367;-73
2022/05/01 07:16:23;;;;;;;9.68;6.15;;;12.80;63.50;;;;;;5087076;28;20440;-72
2022/05/01 07:18:49;;;;;;;7.70;6.07;;;12.90;63.50;;;;;;5086894;28;20034;-73
2022/05/01 07:21:14;;;;;;;8.35;6.65;;;12.90;63.30;;;;;;5088583;28;20024;-71
2022/05/01 07:23:40;;;;;;;9.27;6.68;;;12.90;63.30;;;;;;5085874;28;20016;-70
2022/05/01 07:26:06;;;;;;;9.07;6.35;;;13.00;63.20;;;;;;5086014;28;20119;-71
2022/05/01 07:28:32;;;;;;;7.65;6.18;;;13.10;63.10;;;;;;5087004;28;20055;-71
2022/05/01 07:30:59;;;;;;;8.48;6.63;;;13.20;62.90;;;;;;5087668;28;20130;-71
2022/05/01 07:33:25;;;;;;;9.00;6.70;;;13.10;62.70;;;;;;5086516;28;20107;-71
2022/05/01 07:35:51;;;;;;;10.32;7.70;;;13.10;63.10;;;;;;5088682;28;20119;-71
2022/05/01 07:38:17;;;;;;;7.80;5.75;;;13.20;63.00;;;;;;5085243;28;20027;-71
2022/05/01 07:40:43;;;;;;;9.98;7.75;;;13.50;62.80;;;;;;5086813;28;20035;-71
2022/05/01 07:43:09;;;;;;;9.68;7.20;;;13.50;62.30;;;;;;5084286;28;20017;-71
2022/05/01 07:45:35;;;;;;;7.40;6.60;;;13.50;62.40;;;;;;5086573;28;20035;-70
2022/05/01 07:48:00;;;;;;;7.65;6.30;;;13.70;62.20;;;;;;5087491;28;20176;-72
2022/05/01 07:50:27;;;;;;;9.52;6.68;;;13.90;62.00;;;;;;5087193;28;20791;-70
2022/05/01 07:52:53;;;;;;;7.07;5.88;;;14.00;61.50;;;;;;5085525;28;20676;-72
2022/05/01 07:55:18;;;;;;;9.82;7.30;;;14.10;61.00;;;;;;5087099;28;20012;-70
2022/05/01 07:57:44;;;;;;;7.47;6.65;;;14.20;60.60;;;;;;5086964;28;20035;-71
2022/05/01 08:00:10;;;;;;;7.32;5.90;;;14.30;60.40;;;;;;5088527;28;20012;-71
2022/05/01 08:05:23;;;;;;;8.57;6.32;;;14.50;60.30;;;;;;5089039;28;20838;-72
2022/05/01 08:07:51;;;;;;;7.88;6.90;;;14.60;59.30;;;;;;5086903;28;20027;-72
2022/05/01 08:10:17;;;;;;;7.30;6.13;;;14.60;59.10;;;;;;5091867;28;20024;-73
2022/05/01 08:12:42;;;;;;;7.53;5.65;;;14.70;59.10;;;;;;5091020;28;20028;-73
2022/05/01 08:15:09;;;;;;;7.20;5.60;;;14.70;58.80;;;;;;5092829;28;20024;-72
2022/05/01 08:17:34;;;;;;;7.95;6.30;;;14.80;58.50;;;;;;5087600;28;20035;-70
2022/05/01 08:22:44;;;;;;;6.72;5.13;;;14.70;58.20;;;;;;5090274;28;20525;-71
2022/05/01 08:25:09;;;;;;;8.68;6.13;;;14.70;58.30;;;;;;5091812;28;20099;-71
2022/05/01 08:27:35;;;;;;;7.55;6.22;;;14.70;58.00;;;;;;5090368;28;20024;-70
2022/05/01 08:30:00;;;;;;;7.05;6.13;;;14.70;57.90;;;;;;5092462;28;20028;-71
2022/05/01 08:32:26;;;;;;;7.63;5.38;;;14.80;57.90;;;;;;5091286;28;20712;-71
2022/05/01 08:34:52;;;;;;;6.88;5.85;;;14.90;57.70;;;;;;5092559;28;20023;-71
2022/05/01 08:37:18;;;;;;;8.40;6.95;;;15.00;57.70;;;;;;5088523;28;20025;-70
2022/05/01 08:39:44;;;;;;;8.90;7.03;;;15.00;57.50;;;;;;5086372;28;20470;-71
2022/05/01 08:42:09;;;;;;;10.52;7.45;;;15.00;57.50;;;;;;5085733;28;20025;-71
2022/05/01 08:44:37;;;;;;;9.52;8.30;;;14.90;57.20;;;;;;5087703;28;20028;-71
2022/05/01 08:47:34;;;;;;;10.10;8.02;;;15.00;56.80;;;;;;5090617;28;20889;-70
2022/05/01 08:50:02;;;;;;;9.02;7.35;;;14.80;56.60;;;;;;5083506;28;20038;-71
2022/05/01 08:52:29;;;;;;;8.63;6.15;;;14.80;56.70;;;;;;5090076;28;20611;-72
2022/05/01 08:54:57;;;;;;;6.43;5.55;;;14.90;57.10;;;;;;5088448;28;20054;-71
2022/05/01 08:57:23;;;;;;;6.97;5.68;;;15.00;56.70;;;;;;5086630;28;20491;-71
2022/05/01 08:59:53;;;;;;;5.95;5.32;;;15.10;56.50;;;;;;5090292;28;20020;-72
2022/05/01 09:02:19;;;;;;;7.57;5.88;;;15.20;56.10;;;;;;5086417;28;20111;-72
2022/05/01 09:04:45;;;;;;;7.53;5.85;;;15.20;56.00;;;;;;5089127;28;20104;-71
2022/05/01 09:07:11;;;;;;;6.63;5.10;;;15.10;55.70;;;;;;5088040;28;20039;-72
2022/05/01 09:09:36;;;;;;;7.00;5.60;;;15.00;55.40;;;;;;5088865;28;20032;-72
2022/05/01 09:14:48;;;;;;;5.40;4.00;;;15.00;55.00;;;;;;5088910;28;20043;-72
2022/05/01 09:17:17;;;;;;;6.57;4.70;;;15.00;54.70;;;;;;5089709;28;20046;-72
2022/05/01 09:19:45;;;;;;;6.85;4.68;;;14.80;53.90;;;;;;5090279;28;20543;-72
2022/05/01 09:22:12;;;;;;;7.15;4.75;;;14.80;54.10;;;;;;5089746;28;20474;-72
2022/05/01 09:24:37;;;;;;;8.35;6.63;;;14.90;54.30;;;;;;5089739;28;20019;-72
2022/05/01 09:27:03;;;;;;;8.30;7.10;;;14.70;54.20;;;;;;5089399;28;20484;-72
2022/05/01 09:29:34;;;;;;;7.53;6.60;;;14.50;54.00;;;;;;5089218;28;20036;-72
2022/05/01 09:32:01;;;;;;;10.23;7.68;;;14.40;54.40;;;;;;5088269;28;20406;-72
2022/05/01 09:34:29;;;;;;;8.27;5.70;;;14.30;54.50;;;;;;5089129;28;20085;-72
2022/05/01 09:37:00;;;;;;;7.10;6.13;;;14.30;55.00;;;;;;5088334;28;20032;-72
2022/05/01 09:39:28;;;;;;;6.70;5.28;;;14.40;54.80;;;;;;5087959;28;20028;-71
2022/05/01 09:41:54;;;;;;;5.15;4.50;;;14.60;54.60;;;;;;5089214;28;20095;-71
2022/05/01 09:44:21;;;;;;;10.05;6.97;;;14.70;54.20;;;;;;5090024;28;20171;-71
2022/05/01 09:46:49;;;;;;;7.78;6.45;;;14.60;53.50;;;;;;5089614;28;20036;-71
2022/05/01 09:49:18;;;;;;;6.68;5.57;;;14.60;52.50;;;;;;5088277;28;20076;-71
2022/05/01 09:51:56;;;;;;;6.97;5.80;;;14.40;52.30;;;;;;5089793;28;20058;-71
2022/05/01 09:54:23;;;;;;;6.35;4.75;;;14.30;52.10;;;;;;5088340;28;20374;-71
2022/05/01 09:57:00;;;;;;;7.68;5.00;;;14.40;52.50;;;;;;5086502;28;20019;-70
2022/05/01 09:59:28;;;;;;;5.80;4.50;;;14.60;52.70;;;;;;5087368;28;20486;-71
2022/05/01 10:02:05;;;;;;;7.22;5.40;;;14.80;52.60;;;;;;5088174;28;20024;-70
2022/05/01 10:04:35;;;;;;;7.78;6.07;;;14.90;52.40;;;;;;5087722;28;20032;-71
2022/05/01 10:07:02;;;;;;;6.70;5.28;;;14.80;52.00;;;;;;5089286;28;20024;-71
2022/05/01 10:09:33;;;;;;;7.07;5.28;;;14.80;52.00;;;;;;5087068;28;20039;-71
2022/05/01 10:11:59;;;;;;;7.10;5.47;;;14.80;51.80;;;;;;5088617;28;20457;-71
2022/05/01 10:14:26;;;;;;;6.00;4.90;;;14.80;52.10;;;;;;5087426;28;20390;-71
2022/05/01 10:16:54;;;;;;;6.22;5.15;;;15.00;52.20;;;;;;5081936;28;20020;-71
2022/05/01 10:19:23;;;;;;;7.93;5.05;;;15.10;52.00;;;;;;5085966;28;20024;-71
2022/05/01 10:21:51;;;;;;;6.68;4.90;;;15.20;52.10;;;;;;5080809;28;20107;-70
2022/05/01 10:24:17;;;;;;;5.78;4.90;;;15.30;51.80;;;;;;5085884;28;20020;-71
2022/05/01 10:27:10;;;;;;;6.88;4.57;;;15.20;51.40;;;;;;5081717;28;20394;-71
2022/05/01 10:29:38;;;;;;;5.55;4.70;;;15.20;51.40;;;;;;5085721;28;20028;-71
2022/05/01 10:32:39;;;;;;;6.18;4.65;;;15.30;51.10;;;;;;5082691;28;20120;-71
2022/05/01 10:35:29;;;;;;;5.80;4.47;;;15.40;51.00;;;;;;5087159;28;20036;-71
2022/05/01 10:38:17;;;;;;;5.45;4.68;;;15.50;50.80;;;;;;5087877;28;20513;-71
2022/05/01 10:40:58;;;;;;;5.43;3.97;;;15.60;50.10;;;;;;5084339;28;20020;-71
2022/05/01 10:43:31;;;;;;;5.03;4.35;;;15.80;50.20;;;;;;5084863;28;20032;-71
2022/05/01 10:46:03;;;;;;;5.65;4.50;;;15.90;49.30;;;;;;5083217;28;20083;-71
2022/05/01 10:48:36;;;;;;;7.45;5.40;;;15.90;47.80;;;;;;5084655;28;20468;-71
2022/05/01 10:51:30;;;;;;;9.18;5.75;;;15.90;48.40;;;;;;5083160;28;20041;-71
2022/05/01 10:54:13;;;;;;;6.55;4.75;;;15.80;47.20;;;;;;5088417;28;20484;-71
2022/05/01 10:56:50;;;;;;;6.25;5.13;;;15.80;47.80;;;;;;5082507;28;20028;-71
2022/05/01 10:59:34;;;;;;;4.32;3.85;;;15.90;47.40;;;;;;5084708;28;20032;-71
2022/05/01 11:02:01;;;;;;;4.13;3.17;;;16.10;47.50;;;;;;5084879;28;20448;-71
2022/05/01 11:04:42;;;;;;;5.70;4.40;;;16.30;47.50;;;;;;5088244;28;20035;-71
2022/05/01 11:07:14;;;;;;;5.88;3.97;;;16.30;46.90;;;;;;5087066;28;20032;-71
2022/05/01 11:09:50;;;;;;;7.38;5.20;;;16.30;46.80;;;;;;5086482;28;20437;-71
2022/05/01 11:12:19;;;;;;;4.65;3.50;;;16.20;45.70;;;;;;5086944;28;20055;-71
2022/05/01 11:14:52;;;;;;;6.40;4.82;;;16.20;46.30;;;;;;5086931;28;20382;-71
2022/05/01 11:17:28;;;;;;;4.75;4.00;;;16.20;45.90;;;;;;5087298;28;20023;-70
2022/05/01 11:20:02;;;;;;;7.20;5.07;;;16.30;46.30;;;;;;5085294;28;20026;-70
2022/05/01 11:22:28;;;;;;;5.50;4.00;;;16.20;45.00;;;;;;5084926;28;20044;-71
2022/05/01 11:24:54;;;;;;;5.75;3.97;;;16.20;45.30;;;;;;5084502;28;20055;-71
2022/05/01 11:27:21;;;;;;;4.68;3.15;;;16.40;45.60;;;;;;5084972;28;20028;-71
2022/05/01 11:30:06;;;;;;;5.30;4.40;;;16.60;45.40;;;;;;5080545;28;20048;-71
2022/05/01 11:32:50;;;;;;;6.72;4.15;;;16.70;45.50;;;;;;5084310;28;20110;-71
2022/05/01 11:35:18;;;;;;;5.45;3.30;;;16.70;45.90;;;;;;5078839;28;20466;-70
2022/05/01 11:37:59;;;;;;;5.65;3.97;;;16.80;46.30;;;;;;5083704;28;20020;-73
2022/05/01 11:40:26;;;;;;;6.97;4.40;;;16.80;46.40;;;;;;5082060;28;20031;-70
2022/05/01 11:43:12;;;;;;;4.75;4.13;;;16.80;46.40;;;;;;5084758;28;20016;-70
2022/05/01 11:45:38;;;;;;;5.78;3.83;;;16.90;46.60;;;;;;5087563;28;20417;-70
2022/05/01 11:48:11;;;;;;;5.00;4.15;;;16.90;46.70;;;;;;5088268;28;20050;-69
2022/05/01 11:50:39;;;;;;;5.00;3.85;;;16.90;46.40;;;;;;5089454;28;20103;-70
2022/05/01 11:53:18;;;;;;;4.55;3.80;;;17.00;46.40;;;;;;5089576;28;20027;-69
2022/05/01 12:04:34;;;;;;;6.55;4.90;;;17.40;45.40;;;;;;5080299;28;20027;-70
2022/05/01 12:07:18;;;;;;;8.43;5.18;;;17.40;45.10;;;;;;5078449;28;20123;-72
2022/05/01 12:09:47;;;;;;;9.20;5.03;;;17.30;44.60;;;;;;5087635;28;20024;-71
2022/05/01 12:12:16;;;;;;;8.00;5.15;;;17.10;44.60;;;;;;5083427;28;20448;-71
2022/05/01 12:14:42;;;;;;;5.90;4.50;;;17.00;44.80;;;;;;5083816;28;20379;-69
2022/05/01 12:17:10;;;;;;;5.00;3.80;;;17.20;45.00;;;;;;5091864;28;20035;-70
2022/05/01 12:19:38;;;;;;;7.15;5.20;;;17.40;44.80;;;;;;5080377;28;20659;-70
2022/05/01 12:22:10;;;;;;;7.63;4.75;;;17.30;43.60;;;;;;5092305;28;20410;-70
2022/05/01 12:24:36;;;;;;;5.55;4.00;;;17.40;44.10;;;;;;5091829;28;20073;-70
2022/05/01 12:27:03;;;;;;;4.90;3.50;;;17.50;43.90;;;;;;5090701;28;20062;-70
2022/05/01 12:29:29;;;;;;;5.88;3.70;;;17.70;43.80;;;;;;5090722;28;20063;-70
2022/05/01 12:32:10;;;;;;;5.35;4.22;;;17.90;43.60;;;;;;5089482;28;20034;-70
2022/05/01 12:34:55;;;;;;;6.28;4.70;;;18.00;42.80;;;;;;5093219;28;20594;-70
2022/05/01 12:37:29;;;;;;;5.97;4.93;;;18.00;42.50;;;;;;5093114;28;20032;-70
2022/05/01 12:40:12;;;;;;;5.57;4.13;;;18.00;42.30;;;;;;5091979;28;20070;-70
2022/05/01 12:45:45;;;;;;;7.22;5.88;;;17.70;41.10;;;;;;5089172;28;20100;-70
2022/05/01 12:48:13;;;;;;;6.60;5.30;;;17.50;41.60;;;;;;5093093;28;20055;-69
2022/05/01 12:50:40;;;;;;;5.30;4.18;;;17.30;41.70;;;;;;5086079;28;20024;-71
2022/05/01 12:53:29;;;;;;;5.80;4.28;;;17.30;42.50;;;;;;5092766;28;20054;-71
2022/05/01 12:55:56;;;;;;;5.80;4.53;;;17.40;42.60;;;;;;5090019;28;20032;-71
2022/05/01 12:58:30;;;;;;;4.57;4.00;;;17.50;42.50;;;;;;5092970;28;20158;-71
2022/05/01 13:00:56;;;;;;;5.75;4.10;;;17.60;42.50;;;;;;5092702;28;20028;-70
2022/05/01 13:03:39;;;;;;;4.03;3.42;;;17.70;42.50;;;;;;5096486;28;20039;-73
2022/05/01 13:06:07;;;;;;;5.38;3.92;;;17.70;42.50;;;;;;5099527;28;20027;-71
2022/05/01 13:08:37;;;;;;;4.13;3.67;;;17.80;42.50;;;;;;5100506;28;20019;-71
2022/05/01 13:11:23;;;;;;;4.55;3.70;;;17.80;42.50;;;;;;5099539;28;20039;-71
2022/05/01 13:13:58;;;;;;;4.88;3.33;;;17.70;42.30;;;;;;5090418;28;20024;-71
2022/05/01 13:16:30;;;;;;;4.85;3.35;;;17.80;42.50;;;;;;5091863;28;20029;-71
2022/05/01 13:18:57;;;;;;;5.60;3.95;;;17.90;42.50;;;;;;5088207;28;20057;-71
2022/05/01 13:21:25;;;;;;;4.00;3.38;;;17.90;42.20;;;;;;5091327;28;20168;-71
2022/05/01 13:23:52;;;;;;;4.35;3.10;;;17.90;42.20;;;;;;5091553;28;20024;-71
2022/05/01 13:26:19;;;;;;;5.30;3.88;;;17.90;42.40;;;;;;5091726;28;20035;-71
2022/05/01 13:28:45;;;;;;;4.93;3.72;;;17.90;42.20;;;;;;5094614;28;20099;-70